Time;durP1;ratioP1;P1;durP2;ratioP2;P2;SDS_P1;SDS_P2;PMS_P1;PMS_P2;Temp;Humidity;BMP_temperature;BMP_pressure;BME280_temperature;BME280_humidity;BME280_pressure;Samples;Min_cycle;Max_cycle;Signal;HPM_P1;HPM_P2
2021/06/06 00:00:46;;;;;;;;;;;;;;;;;;1479240;40;7008;-67
2021/06/06 00:01:49;;;;;;;;;;;;;;;;;;1479159;40;7008;-64
2021/06/06 00:02:52;;;;;;;;;;;;;;;;;;1478991;40;7878;-65
2021/06/06 00:03:56;;;;;;;;;;;;;;;;;;1479198;40;7020;-64
2021/06/06 00:04:58;;;;;;;;;;;;;;;;;;1479134;40;7187;-63
2021/06/06 00:06:03;;;;;;;;;;;;;;;;;;1478791;40;7031;-62
2021/06/06 00:07:05;;;;;;;;;;;;;;;;;;1479102;40;7921;-63
2021/06/06 00:08:08;;;;;;;;;;;;;;;;;;1480215;40;7307;-65
2021/06/06 00:09:14;;;;;;;;;;;;;;;;;;1482946;40;7027;-64
2021/06/06 00:10:16;;;;;;;;;;;;;;;;;;1478847;40;7019;-63
2021/06/06 00:11:19;;;;;;;;;;;;;;;;;;1479250;40;7030;-63
2021/06/06 00:12:21;;;;;;;;;;;;;;;;;;1478996;40;7039;-63
2021/06/06 00:13:24;;;;;;;;;;;;;;;;;;1479157;40;7039;-64
2021/06/06 00:14:28;;;;;;;;;;;;;;;;;;1478805;40;7043;-65
2021/06/06 00:15:31;;;;;;;;;;;;;;;;;;1479451;40;7012;-64
2021/06/06 00:16:36;;;;;;;;;;;;;;;;;;1479670;40;7007;-62
2021/06/06 00:17:39;;;;;;;;;;;;;;;;;;1480627;40;7203;-65
2021/06/06 00:18:42;;;;;;;;;;;;;;;;;;1482964;40;7003;-64
2021/06/06 00:19:44;;;;;;;;;;;;;;;;;;1481927;40;8347;-62
2021/06/06 00:20:46;;;;;;;;;;;;;;;;;;1481013;40;7192;-65
2021/06/06 00:21:50;;;;;;;;;;;;;;;;;;1481221;40;7003;-64
2021/06/06 00:22:54;;;;;;;;;;;;;;;;;;1481699;40;7012;-65
2021/06/06 00:23:57;;;;;;;;;;;;;;;;;;1478689;40;7034;-65
2021/06/06 00:24:59;;;;;;;;;;;;;;;;;;1478723;40;7939;-62
2021/06/06 00:26:03;;;;;;;;;;;;;;;;;;1478593;40;7000;-63
2021/06/06 00:27:07;;;;;;;;;;;;;;;;;;1478723;40;7035;-64
2021/06/06 00:28:09;;;;;;;;;;;;;;;;;;1478472;40;7011;-61
2021/06/06 00:29:11;;;;;;;;;;;;;;;;;;1482362;40;7007;-62
2021/06/06 00:30:14;;;;;;;;;;;;;;;;;;1482636;40;7894;-62
2021/06/06 00:31:17;;;;;;;;;;;;;;;;;;1482620;40;7027;-63
2021/06/06 00:32:19;;;;;;;;;;;;;;;;;;1482520;40;7011;-64
2021/06/06 00:33:22;;;;;;;;;;;;;;;;;;1483123;40;7204;-63
2021/06/06 00:34:26;;;;;;;;;;;;;;;;;;1482929;40;7107;-65
2021/06/06 00:35:28;;;;;;;;;;;;;;;;;;1483082;40;7870;-63
2021/06/06 00:36:31;;;;;;;;;;;;;;;;;;1482402;40;7000;-65
2021/06/06 00:37:34;;;;;;;;;;;;;;;;;;1482479;40;7044;-62
2021/06/06 00:38:37;;;;;;;;;;;;;;;;;;1483135;40;7003;-64
2021/06/06 00:39:39;;;;;;;;;;;;;;;;;;1483055;40;7052;-61
2021/06/06 00:40:42;;;;;;;;;;;;;;;;;;1483010;40;7060;-65
2021/06/06 00:41:46;;;;;;;;;;;;;;;;;;1483067;40;7106;-66
2021/06/06 00:42:48;;;;;;;;;;;;;;;;;;1479226;40;6999;-65
2021/06/06 00:43:51;;;;;;;;;;;;;;;;;;1478851;40;7070;-63
2021/06/06 00:44:53;;;;;;;;;;;;;;;;;;1478932;40;7032;-61
2021/06/06 00:45:56;;;;;;;;;;;;;;;;;;1478949;40;9241;-63
2021/06/06 00:46:59;;;;;;;;;;;;;;;;;;1479938;40;7047;-63
2021/06/06 00:48:03;;;;;;;;;;;;;;;;;;1483107;40;7127;-67
2021/06/06 00:49:06;;;;;;;;;;;;;;;;;;1482822;40;7117;-61
2021/06/06 00:50:14;;;;;;;;;;;;;;;;;;1483395;40;7870;-62
2021/06/06 00:51:20;;;;;;;;;;;;;;;;;;1478813;40;7023;-65
2021/06/06 00:52:24;;;;;;;;;;;;;;;;;;1479066;40;6999;-62
2021/06/06 00:53:46;;;;;;;;;;;;;;;;;;1479103;40;8013;-63
2021/06/06 00:54:51;;;;;;;;;;;;;;;;;;1478902;40;6999;-63
2021/06/06 00:55:54;;;;;;;;;;;;;;;;;;1479036;40;7015;-63
2021/06/06 00:57:01;;;;;;;;;;;;;;;;;;1478869;40;7035;-62
2021/06/06 00:58:08;;;;;;;;;;;;;;;;;;1478053;40;7128;-63
2021/06/06 00:59:11;;;;;;;;;;;;;;;;;;1478831;40;7012;-63
2021/06/06 01:00:16;;;;;;;;;;;;;;;;;;1479093;40;6999;-63
2021/06/06 01:01:19;;;;;;;;;;;;;;;;;;1478990;40;7031;-64
2021/06/06 01:02:21;;;;;;;;;;;;;;;;;;1479214;40;7017;-64
2021/06/06 01:03:25;;;;;;;;;;;;;;;;;;1478834;40;7048;-63
2021/06/06 01:04:28;;;;;;;;;;;;;;;;;;1479026;40;6999;-64
2021/06/06 01:05:34;;;;;;;;;;;;;;;;;;1478768;40;7115;-62
2021/06/06 01:06:45;;;;;;;;;;;;;;;;;;1482830;40;7898;-65
2021/06/06 01:07:48;;;;;;;;;;;;;;;;;;1481533;40;7071;-64
2021/06/06 01:08:52;;;;;;;;;;;;;;;;;;1478646;40;7032;-67
2021/06/06 01:09:54;;;;;;;;;;;;;;;;;;1479259;40;7051;-61
2021/06/06 01:11:00;;;;;;;;;;;;;;;;;;1479092;40;7000;-64
2021/06/06 01:12:18;;;;;;;;;;;;;;;;;;1483152;40;7043;-64
2021/06/06 01:13:26;;;;;;;;;;;;;;;;;;1483369;40;7032;-62
2021/06/06 01:14:38;;;;;;;;;;;;;;;;;;1483038;40;7044;-64
2021/06/06 01:15:43;;;;;;;;;;;;;;;;;;1482981;40;7040;-62
2021/06/06 01:16:46;;;;;;;;;;;;;;;;;;1482925;40;7007;-63
2021/06/06 01:17:57;;;;;;;;;;;;;;;;;;1480167;40;7198;-65
2021/06/06 01:19:05;;;;;;;;;;;;;;;;;;1478945;40;7877;-65
2021/06/06 01:20:12;;;;;;;;;;;;;;;;;;1478709;40;7016;-65
2021/06/06 01:21:14;;;;;;;;;;;;;;;;;;1478802;40;7016;-64
2021/06/06 01:22:29;;;;;;;;;;;;;;;;;;1482897;40;7202;-62
2021/06/06 01:23:37;;;;;;;;;;;;;;;;;;1478542;40;7124;-64
2021/06/06 01:24:43;;;;;;;;;;;;;;;;;;1478720;40;7115;-63
2021/06/06 01:25:50;;;;;;;;;;;;;;;;;;1478395;40;7008;-64
2021/06/06 01:26:58;;;;;;;;;;;;;;;;;;1478662;40;7882;-65
2021/06/06 01:28:23;;;;;;;;;;;;;;;;;;1478727;40;6999;-63
2021/06/06 01:29:34;;;;;;;;;;;;;;;;;;1478117;40;7059;-63
2021/06/06 01:30:42;;;;;;;;;;;;;;;;;;1478816;40;7915;-62
2021/06/06 01:31:48;;;;;;;;;;;;;;;;;;1481465;40;7901;-64
2021/06/06 01:33:05;;;;;;;;;;;;;;;;;;1478571;40;7032;-62
2021/06/06 01:34:10;;;;;;;;;;;;;;;;;;1478813;40;7959;-64
2021/06/06 01:35:30;;;;;;;;;;;;;;;;;;1479250;40;7027;-63
2021/06/06 01:36:39;;;;;;;;;;;;;;;;;;1478140;40;7007;-62
2021/06/06 01:37:45;;;;;;;;;;;;;;;;;;1478438;40;7891;-63
2021/06/06 01:38:51;;;;;;;;;;;;;;;;;;1478772;40;7011;-65
2021/06/06 01:40:07;;;;;;;;;;;;;;;;;;1479097;40;7128;-62
2021/06/06 01:41:13;;;;;;;;;;;;;;;;;;1478824;40;7889;-61
2021/06/06 01:42:24;;;;;;;;;;;;;;;;;;1478851;40;7043;-64
2021/06/06 01:43:33;;;;;;;;;;;;;;;;;;1479037;40;7040;-63
2021/06/06 01:44:41;;;;;;;;;;;;;;;;;;1478965;40;7007;-65
2021/06/06 01:45:51;;;;;;;;;;;;;;;;;;1479752;40;7007;-65
2021/06/06 01:46:58;;;;;;;;;;;;;;;;;;1479211;40;7042;-64
2021/06/06 01:48:05;;;;;;;;;;;;;;;;;;1482888;40;7000;-62
2021/06/06 01:49:09;;;;;;;;;;;;;;;;;;1482866;40;7003;-60
2021/06/06 01:50:16;;;;;;;;;;;;;;;;;;1478450;40;7364;-62
2021/06/06 01:51:22;;;;;;;;;;;;;;;;;;1478535;40;7039;-63
2021/06/06 01:52:27;;;;;;;;;;;;;;;;;;1478661;40;7110;-63
2021/06/06 01:53:30;;;;;;;;;;;;;;;;;;1478497;40;7012;-63
2021/06/06 01:54:35;;;;;;;;;;;;;;;;;;1478821;40;7225;-64
2021/06/06 01:55:42;;;;;;;;;;;;;;;;;;1479002;40;7039;-64
2021/06/06 01:56:48;;;;;;;;;;;;;;;;;;1482913;40;7043;-64
2021/06/06 01:57:53;;;;;;;;;;;;;;;;;;1478335;40;7854;-62
2021/06/06 01:58:58;;;;;;;;;;;;;;;;;;1479623;39;7117;-61
2021/06/06 02:00:03;;;;;;;;;;;;;;;;;;1482774;40;6999;-62
2021/06/06 02:01:13;;;;;;;;;;;;;;;;;;1482797;40;7003;-63
2021/06/06 02:02:17;;;;;;;;;;;;;;;;;;1483056;40;7012;-65
2021/06/06 02:03:20;;;;;;;;;;;;;;;;;;1482828;40;7194;-63
2021/06/06 02:04:23;;;;;;;;;;;;;;;;;;1482949;40;7003;-65
2021/06/06 02:05:25;;;;;;;;;;;;;;;;;;1482775;40;7038;-63
2021/06/06 02:06:33;;;;;;;;;;;;;;;;;;1483020;40;7000;-66
2021/06/06 02:07:37;;;;;;;;;;;;;;;;;;1482832;40;7882;-64
2021/06/06 02:08:41;;;;;;;;;;;;;;;;;;1483277;40;7113;-61
2021/06/06 02:09:47;;;;;;;;;;;;;;;;;;1478822;40;7213;-66
2021/06/06 02:10:53;;;;;;;;;;;;;;;;;;1479480;40;6999;-64
2021/06/06 02:11:59;;;;;;;;;;;;;;;;;;1479220;40;7218;-65
2021/06/06 02:13:11;;;;;;;;;;;;;;;;;;1479809;40;7054;-62
2021/06/06 02:14:16;;;;;;;;;;;;;;;;;;1479368;40;6999;-64
2021/06/06 02:15:22;;;;;;;;;;;;;;;;;;1481736;40;6999;-65
2021/06/06 02:16:30;;;;;;;;;;;;;;;;;;1483532;40;7120;-64
2021/06/06 02:17:33;;;;;;;;;;;;;;;;;;1482044;40;7020;-68
2021/06/06 02:18:35;;;;;;;;;;;;;;;;;;1480771;40;6999;-62
2021/06/06 02:19:40;;;;;;;;;;;;;;;;;;1479066;40;6996;-68
2021/06/06 02:20:44;;;;;;;;;;;;;;;;;;1479009;40;7655;-63
2021/06/06 02:21:46;;;;;;;;;;;;;;;;;;1480015;40;8543;-65
2021/06/06 02:22:49;;;;;;;;;;;;;;;;;;1478860;40;7007;-64
2021/06/06 02:23:52;;;;;;;;;;;;;;;;;;1479391;40;7086;-64
2021/06/06 02:24:55;;;;;;;;;;;;;;;;;;1479012;40;7923;-63
2021/06/06 02:26:03;;;;;;;;;;;;;;;;;;1479110;40;7101;-64
2021/06/06 02:27:28;;;;;;;;;;;;;;;;;;1479268;40;7031;-64
2021/06/06 02:28:57;;;;;;;;;;;;;;;;;;1479657;40;7871;-68
2021/06/06 02:30:05;;;;;;;;;;;;;;;;;;1482014;40;8345;-64
2021/06/06 02:31:13;;;;;;;;;;;;;;;;;;1483100;40;7003;-65
2021/06/06 02:32:34;;;;;;;;;;;;;;;;;;1483049;40;7118;-63
2021/06/06 02:33:41;;;;;;;;;;;;;;;;;;1483293;40;7004;-66
2021/06/06 02:34:46;;;;;;;;;;;;;;;;;;1483335;40;7123;-64
2021/06/06 02:35:55;;;;;;;;;;;;;;;;;;1483578;40;7007;-66
2021/06/06 02:37:02;;;;;;;;;;;;;;;;;;1482690;40;7003;-61
2021/06/06 02:38:08;;;;;;;;;;;;;;;;;;1483525;40;7868;-64
2021/06/06 02:39:21;;;;;;;;;;;;;;;;;;1483543;40;7920;-63
2021/06/06 02:40:30;;;;;;;;;;;;;;;;;;1483560;40;7104;-63
2021/06/06 02:41:44;;;;;;;;;;;;;;;;;;1483280;40;7171;-64
2021/06/06 02:42:50;;;;;;;;;;;;;;;;;;1483296;40;7012;-63
2021/06/06 02:43:58;;;;;;;;;;;;;;;;;;1483597;40;7011;-65
2021/06/06 02:45:07;;;;;;;;;;;;;;;;;;1479104;40;7944;-62
2021/06/06 02:46:13;;;;;;;;;;;;;;;;;;1479348;40;8888;-62
2021/06/06 02:47:17;;;;;;;;;;;;;;;;;;1480763;40;7040;-63
2021/06/06 02:48:32;;;;;;;;;;;;;;;;;;1479522;40;7376;-63
2021/06/06 02:49:37;;;;;;;;;;;;;;;;;;1483770;40;7118;-63
2021/06/06 02:50:42;;;;;;;;;;;;;;;;;;1480710;40;7122;-62
2021/06/06 02:51:48;;;;;;;;;;;;;;;;;;1483589;40;7150;-63
2021/06/06 02:52:56;;;;;;;;;;;;;;;;;;1483389;40;7040;-62
2021/06/06 02:54:02;;;;;;;;;;;;;;;;;;1479707;40;8845;-65
2021/06/06 02:55:10;;;;;;;;;;;;;;;;;;1479520;40;7083;-66
2021/06/06 02:56:17;;;;;;;;;;;;;;;;;;1479346;40;7115;-65
2021/06/06 02:57:21;;;;;;;;;;;;;;;;;;1479801;40;7175;-64
2021/06/06 02:58:37;;;;;;;;;;;;;;;;;;1479260;40;7939;-62
2021/06/06 02:59:46;;;;;;;;;;;;;;;;;;1479475;40;6999;-64
2021/06/06 03:00:53;;;;;;;;;;;;;;;;;;1479463;40;7008;-62
2021/06/06 03:02:01;;;;;;;;;;;;;;;;;;1479513;40;7223;-62
2021/06/06 03:03:07;;;;;;;;;;;;;;;;;;1479507;40;7113;-62
2021/06/06 03:04:12;;;;;;;;;;;;;;;;;;1479205;40;7000;-64
2021/06/06 03:05:18;;;;;;;;;;;;;;;;;;1478945;40;7125;-63
2021/06/06 03:06:25;;;;;;;;;;;;;;;;;;1479113;40;7046;-65
2021/06/06 03:07:32;;;;;;;;;;;;;;;;;;1479811;40;7132;-62
2021/06/06 03:08:35;;;;;;;;;;;;;;;;;;1479517;40;7027;-63
2021/06/06 03:09:38;;;;;;;;;;;;;;;;;;1479516;40;7183;-64
2021/06/06 03:10:42;;;;;;;;;;;;;;;;;;1479552;40;7227;-61
2021/06/06 03:11:47;;;;;;;;;;;;;;;;;;1478998;40;7039;-66
2021/06/06 03:12:53;;;;;;;;;;;;;;;;;;1479197;40;7011;-63
2021/06/06 03:13:58;;;;;;;;;;;;;;;;;;1479201;40;8548;-62
2021/06/06 03:15:05;;;;;;;;;;;;;;;;;;1479229;40;7035;-63
2021/06/06 03:16:08;;;;;;;;;;;;;;;;;;1479554;40;6995;-63
2021/06/06 03:17:10;;;;;;;;;;;;;;;;;;1479502;40;7048;-63
2021/06/06 03:18:14;;;;;;;;;;;;;;;;;;1479441;40;7123;-63
2021/06/06 03:19:17;;;;;;;;;;;;;;;;;;1479708;40;7011;-64
2021/06/06 03:20:22;;;;;;;;;;;;;;;;;;1478995;40;7916;-62
2021/06/06 03:21:28;;;;;;;;;;;;;;;;;;1478321;40;7120;-63
2021/06/06 03:22:34;;;;;;;;;;;;;;;;;;1478878;40;7003;-65
2021/06/06 03:23:39;;;;;;;;;;;;;;;;;;1478748;40;7008;-63
2021/06/06 03:24:45;;;;;;;;;;;;;;;;;;1478996;40;7007;-62
2021/06/06 03:25:51;;;;;;;;;;;;;;;;;;1479860;40;7876;-64
2021/06/06 03:26:55;;;;;;;;;;;;;;;;;;1483045;40;7000;-64
2021/06/06 03:27:58;;;;;;;;;;;;;;;;;;1486847;40;6999;-63
2021/06/06 03:29:04;;;;;;;;;;;;;;;;;;1485389;40;7061;-64
2021/06/06 03:30:25;;;;;;;;;;;;;;;;;;1479039;40;7196;-65
2021/06/06 03:31:32;;;;;;;;;;;;;;;;;;1479054;40;7004;-63
2021/06/06 03:32:37;;;;;;;;;;;;;;;;;;1479199;40;7011;-64
2021/06/06 03:33:42;;;;;;;;;;;;;;;;;;1479109;40;7063;-63
2021/06/06 03:34:45;;;;;;;;;;;;;;;;;;1479154;40;7262;-62
2021/06/06 03:35:47;;;;;;;;;;;;;;;;;;1478594;40;7098;-62
2021/06/06 03:36:49;;;;;;;;;;;;;;;;;;1478477;40;7003;-65
2021/06/06 03:37:52;;;;;;;;;;;;;;;;;;1478738;40;7003;-63
2021/06/06 03:38:56;;;;;;;;;;;;;;;;;;1479361;40;7031;-63
2021/06/06 03:39:59;;;;;;;;;;;;;;;;;;1479042;40;7012;-63
2021/06/06 03:41:02;;;;;;;;;;;;;;;;;;1479329;40;7953;-63
2021/06/06 03:42:04;;;;;;;;;;;;;;;;;;1479262;40;7043;-64
2021/06/06 03:43:09;;;;;;;;;;;;;;;;;;1479627;40;7106;-65
2021/06/06 03:44:12;;;;;;;;;;;;;;;;;;1479069;40;7928;-63
2021/06/06 03:45:14;;;;;;;;;;;;;;;;;;1479367;40;7048;-62
2021/06/06 03:46:19;;;;;;;;;;;;;;;;;;1480033;40;8863;-61
2021/06/06 03:47:21;;;;;;;;;;;;;;;;;;1480434;40;7126;-65
2021/06/06 03:48:24;;;;;;;;;;;;;;;;;;1479371;40;7003;-66
2021/06/06 03:49:27;;;;;;;;;;;;;;;;;;1479048;40;8020;-63
2021/06/06 03:50:30;;;;;;;;;;;;;;;;;;1480355;40;7012;-61
2021/06/06 03:51:34;;;;;;;;;;;;;;;;;;1482997;40;7518;-64
2021/06/06 03:52:37;;;;;;;;;;;;;;;;;;1479186;40;7008;-62
2021/06/06 03:53:39;;;;;;;;;;;;;;;;;;1479232;40;7012;-61
2021/06/06 03:54:42;;;;;;;;;;;;;;;;;;1479315;40;7027;-64
2021/06/06 03:55:44;;;;;;;;;;;;;;;;;;1479122;40;7112;-63
2021/06/06 03:56:51;;;;;;;;;;;;;;;;;;1479455;40;7004;-64
2021/06/06 03:57:54;;;;;;;;;;;;;;;;;;1478956;40;7008;-64
2021/06/06 03:58:56;;;;;;;;;;;;;;;;;;1478766;40;7032;-64
2021/06/06 04:00:00;;;;;;;;;;;;;;;;;;1479326;40;6996;-66
2021/06/06 04:01:03;;;;;;;;;;;;;;;;;;1479552;40;7000;-62
2021/06/06 04:02:06;;;;;;;;;;;;;;;;;;1479424;40;7043;-64
2021/06/06 04:03:10;;;;;;;;;;;;;;;;;;1479479;40;6999;-67
2021/06/06 04:04:13;;;;;;;;;;;;;;;;;;1479125;40;7012;-65
2021/06/06 04:05:16;;;;;;;;;;;;;;;;;;1483353;40;7139;-64
2021/06/06 04:06:18;;;;;;;;;;;;;;;;;;1483466;40;6999;-64
2021/06/06 04:07:21;;;;;;;;;;;;;;;;;;1483467;40;6999;-62
2021/06/06 04:08:24;;;;;;;;;;;;;;;;;;1483129;40;7899;-62
2021/06/06 04:09:26;;;;;;;;;;;;;;;;;;1483386;40;7183;-63
2021/06/06 04:10:29;;;;;;;;;;;;;;;;;;1483110;40;7110;-64
2021/06/06 04:11:31;;;;;;;;;;;;;;;;;;1483424;40;7198;-61
2021/06/06 04:12:34;;;;;;;;;;;;;;;;;;1483081;40;7003;-62
2021/06/06 04:13:36;;;;;;;;;;;;;;;;;;1483275;40;7873;-64
2021/06/06 04:14:39;;;;;;;;;;;;;;;;;;1483373;40;7104;-67
2021/06/06 04:15:41;;;;;;;;;;;;;;;;;;1479201;40;7915;-63
2021/06/06 04:16:44;;;;;;;;;;;;;;;;;;1479636;40;7122;-64
2021/06/06 04:17:46;;;;;;;;;;;;;;;;;;1480548;40;7079;-64
2021/06/06 04:18:49;;;;;;;;;;;;;;;;;;1478539;40;6999;-65
2021/06/06 04:19:53;;;;;;;;;;;;;;;;;;1480548;40;9295;-62
2021/06/06 04:20:57;;;;;;;;;;;;;;;;;;1479165;40;7023;-61
2021/06/06 04:21:59;;;;;;;;;;;;;;;;;;1482884;40;7035;-63
2021/06/06 04:23:05;;;;;;;;;;;;;;;;;;1480825;40;7007;-63
2021/06/06 04:24:08;;;;;;;;;;;;;;;;;;1479136;40;7031;-64
2021/06/06 04:25:12;;;;;;;;;;;;;;;;;;1479172;40;7039;-63
2021/06/06 04:26:15;;;;;;;;;;;;;;;;;;1478973;40;7043;-62
2021/06/06 04:27:17;;;;;;;;;;;;;;;;;;1479080;40;7052;-65
2021/06/06 04:28:21;;;;;;;;;;;;;;;;;;1478780;40;7906;-64
2021/06/06 04:29:24;;;;;;;;;;;;;;;;;;1478938;40;7008;-63
2021/06/06 04:30:26;;;;;;;;;;;;;;;;;;1478522;40;7013;-64
2021/06/06 04:31:29;;;;;;;;;;;;;;;;;;1479290;40;7191;-64
2021/06/06 04:32:31;;;;;;;;;;;;;;;;;;1479198;40;7007;-61
2021/06/06 04:33:34;;;;;;;;;;;;;;;;;;1481386;40;7136;-62
2021/06/06 04:34:37;;;;;;;;;;;;;;;;;;1483550;40;7055;-62
2021/06/06 04:35:41;;;;;;;;;;;;;;;;;;1480112;40;7023;-63
2021/06/06 04:36:47;;;;;;;;;;;;;;;;;;1478475;40;8951;-62
2021/06/06 04:37:49;;;;;;;;;;;;;;;;;;1478968;40;7051;-63
2021/06/06 04:38:52;;;;;;;;;;;;;;;;;;1479592;40;7909;-67
2021/06/06 04:39:54;;;;;;;;;;;;;;;;;;1479561;40;7116;-63
2021/06/06 04:40:58;;;;;;;;;;;;;;;;;;1478723;40;7939;-65
2021/06/06 04:42:01;;;;;;;;;;;;;;;;;;1479225;40;7008;-62
2021/06/06 04:43:03;;;;;;;;;;;;;;;;;;1478852;40;7104;-63
2021/06/06 04:44:06;;;;;;;;;;;;;;;;;;1479135;40;7016;-62
2021/06/06 04:45:10;;;;;;;;;;;;;;;;;;1479252;40;7007;-62
2021/06/06 04:46:16;;;;;;;;;;;;;;;;;;1479631;40;7031;-63
2021/06/06 04:47:18;;;;;;;;;;;;;;;;;;1481488;40;7016;-62
2021/06/06 04:48:23;;;;;;;;;;;;;;;;;;1483689;40;7116;-65
2021/06/06 04:49:26;;;;;;;;;;;;;;;;;;1483382;40;7048;-66
2021/06/06 04:50:28;;;;;;;;;;;;;;;;;;1482137;40;7792;-63
2021/06/06 04:51:31;;;;;;;;;;;;;;;;;;1479329;40;7194;-64
2021/06/06 04:52:36;;;;;;;;;;;;;;;;;;1478882;40;7007;-65
2021/06/06 04:53:39;;;;;;;;;;;;;;;;;;1479512;40;7253;-64
2021/06/06 04:54:42;;;;;;;;;;;;;;;;;;1479188;40;7004;-66
2021/06/06 04:55:46;;;;;;;;;;;;;;;;;;1479835;40;8870;-63
2021/06/06 04:56:49;;;;;;;;;;;;;;;;;;1479458;40;7038;-67
2021/06/06 04:57:51;;;;;;;;;;;;;;;;;;1479073;40;7008;-62
2021/06/06 04:58:55;;;;;;;;;;;;;;;;;;1479465;40;7035;-64
2021/06/06 04:59:57;;;;;;;;;;;;;;;;;;1479653;40;7179;-63
2021/06/06 05:01:00;;;;;;;;;;;;;;;;;;1478775;40;7012;-67
2021/06/06 05:02:05;;;;;;;;;;;;;;;;;;1478953;40;7069;-66
2021/06/06 05:03:10;;;;;;;;;;;;;;;;;;1479286;40;7074;-65
2021/06/06 05:04:13;;;;;;;;;;;;;;;;;;1479261;40;7016;-63
2021/06/06 05:05:15;;;;;;;;;;;;;;;;;;1481259;40;7039;-63
2021/06/06 05:06:18;;;;;;;;;;;;;;;;;;1483609;40;7931;-62
2021/06/06 05:07:20;;;;;;;;;;;;;;;;;;1483475;40;7003;-63
2021/06/06 05:08:23;;;;;;;;;;;;;;;;;;1483430;40;7015;-63
2021/06/06 05:09:26;;;;;;;;;;;;;;;;;;1483410;40;7000;-64
2021/06/06 05:10:30;;;;;;;;;;;;;;;;;;1483105;40;7183;-65
2021/06/06 05:11:32;;;;;;;;;;;;;;;;;;1483154;40;7222;-63
2021/06/06 05:12:35;;;;;;;;;;;;;;;;;;1483466;40;7340;-66
2021/06/06 05:13:37;;;;;;;;;;;;;;;;;;1483405;40;7047;-65
2021/06/06 05:14:40;;;;;;;;;;;;;;;;;;1483216;40;7012;-63
2021/06/06 05:15:43;;;;;;;;;;;;;;;;;;1479364;40;7100;-63
2021/06/06 05:16:46;;;;;;;;;;;;;;;;;;1478843;40;7013;-64
2021/06/06 05:17:49;;;;;;;;;;;;;;;;;;1481215;40;7138;-63
2021/06/06 05:18:53;;;;;;;;;;;;;;;;;;1482168;40;7051;-63
2021/06/06 05:19:56;;;;;;;;;;;;;;;;;;1482491;40;7921;-65
2021/06/06 05:20:59;;;;;;;;;;;;;;;;;;1479831;40;7121;-63
2021/06/06 05:22:02;;;;;;;;;;;;;;;;;;1482222;40;7035;-65
2021/06/06 05:23:05;;;;;;;;;;;;;;;;;;1480700;40;7208;-64
2021/06/06 05:24:08;;;;;;;;;;;;;;;;;;1480968;40;7031;-62
2021/06/06 05:25:11;;;;;;;;;;;;;;;;;;1480386;40;7012;-63
2021/06/06 05:26:14;;;;;;;;;;;;;;;;;;1481007;40;7867;-66
2021/06/06 05:27:18;;;;;;;;;;;;;;;;;;1482832;40;7937;-67
2021/06/06 05:28:23;;;;;;;;;;;;;;;;;;1482484;40;7140;-65
2021/06/06 05:29:25;;;;;;;;;;;;;;;;;;1482608;40;7906;-65
2021/06/06 05:30:30;;;;;;;;;;;;;;;;;;1482752;40;7008;-63
2021/06/06 05:31:32;;;;;;;;;;;;;;;;;;1482884;40;7048;-65
2021/06/06 05:32:35;;;;;;;;;;;;;;;;;;1482878;40;7007;-64
2021/06/06 05:33:37;;;;;;;;;;;;;;;;;;1483239;40;7007;-63
2021/06/06 05:34:42;;;;;;;;;;;;;;;;;;1481107;40;7016;-63
2021/06/06 05:35:44;;;;;;;;;;;;;;;;;;1479099;40;7535;-64
2021/06/06 05:36:47;;;;;;;;;;;;;;;;;;1478348;40;7119;-63
2021/06/06 05:37:49;;;;;;;;;;;;;;;;;;1478671;40;7132;-62
2021/06/06 05:38:51;;;;;;;;;;;;;;;;;;1479289;40;7012;-64
2021/06/06 05:39:54;;;;;;;;;;;;;;;;;;1479342;40;7129;-63
2021/06/06 05:40:56;;;;;;;;;;;;;;;;;;1478539;40;7269;-63
2021/06/06 05:41:59;;;;;;;;;;;;;;;;;;1478903;40;7940;-66
2021/06/06 05:43:02;;;;;;;;;;;;;;;;;;1478846;40;7905;-65
2021/06/06 05:44:05;;;;;;;;;;;;;;;;;;1478363;40;7067;-65
2021/06/06 05:45:08;;;;;;;;;;;;;;;;;;1478784;40;6999;-66
2021/06/06 05:46:15;;;;;;;;;;;;;;;;;;1479004;40;7020;-64
2021/06/06 05:47:17;;;;;;;;;;;;;;;;;;1481185;40;7054;-63
2021/06/06 05:48:20;;;;;;;;;;;;;;;;;;1483283;40;7035;-63
2021/06/06 05:49:23;;;;;;;;;;;;;;;;;;1483467;40;7007;-66
2021/06/06 05:50:28;;;;;;;;;;;;;;;;;;1482151;40;7008;-66
2021/06/06 05:51:30;;;;;;;;;;;;;;;;;;1479074;40;7016;-63
2021/06/06 05:52:33;;;;;;;;;;;;;;;;;;1478699;40;7007;-64
2021/06/06 05:53:36;;;;;;;;;;;;;;;;;;1478870;40;7048;-63
2021/06/06 05:54:38;;;;;;;;;;;;;;;;;;1479083;40;7012;-64
2021/06/06 05:55:42;;;;;;;;;;;;;;;;;;1479018;40;8847;-64
2021/06/06 05:56:44;;;;;;;;;;;;;;;;;;1478905;40;9198;-64
2021/06/06 05:57:47;;;;;;;;;;;;;;;;;;1478899;40;8535;-65
2021/06/06 05:58:50;;;;;;;;;;;;;;;;;;1479007;40;7127;-63
2021/06/06 05:59:52;;;;;;;;;;;;;;;;;;1479082;40;7906;-62
2021/06/06 06:00:55;;;;;;;;;;;;;;;;;;1478966;40;7129;-65
2021/06/06 06:01:58;;;;;;;;;;;;;;;;;;1478932;40;7027;-61
2021/06/06 06:03:02;;;;;;;;;;;;;;;;;;1479186;40;7027;-64
2021/06/06 06:04:04;;;;;;;;;;;;;;;;;;1479805;39;7112;-66
2021/06/06 06:05:07;;;;;;;;;;;;;;;;;;1479145;40;7915;-65
2021/06/06 06:06:09;;;;;;;;;;;;;;;;;;1479544;40;7003;-64
2021/06/06 06:07:12;;;;;;;;;;;;;;;;;;1478931;40;7955;-67
2021/06/06 06:08:20;;;;;;;;;;;;;;;;;;1478856;40;8095;-65
2021/06/06 06:09:22;;;;;;;;;;;;;;;;;;1478897;40;7000;-63
2021/06/06 06:10:28;;;;;;;;;;;;;;;;;;1478906;40;7027;-63
2021/06/06 06:11:30;;;;;;;;;;;;;;;;;;1478792;40;7931;-64
2021/06/06 06:12:33;;;;;;;;;;;;;;;;;;1478981;40;7036;-64
2021/06/06 06:13:36;;;;;;;;;;;;;;;;;;1479174;40;7011;-66
2021/06/06 06:14:38;;;;;;;;;;;;;;;;;;1479052;40;7039;-67
2021/06/06 06:15:41;;;;;;;;;;;;;;;;;;1478982;40;7488;-66
2021/06/06 06:16:43;;;;;;;;;;;;;;;;;;1479115;40;7971;-68
2021/06/06 06:17:46;;;;;;;;;;;;;;;;;;1480349;40;7020;-65
2021/06/06 06:18:49;;;;;;;;;;;;;;;;;;1482209;40;7008;-64
2021/06/06 06:19:52;;;;;;;;;;;;;;;;;;1477833;40;7116;-66
2021/06/06 06:20:55;;;;;;;;;;;;;;;;;;1478378;40;7891;-65
2021/06/06 06:21:57;;;;;;;;;;;;;;;;;;1481758;40;7881;-66
2021/06/06 06:22:59;;;;;;;;;;;;;;;;;;1480939;40;6999;-65
2021/06/06 06:24:02;;;;;;;;;;;;;;;;;;1482056;40;7009;-67
2021/06/06 06:25:06;;;;;;;;;;;;;;;;;;1482230;40;7009;-63
2021/06/06 06:26:09;;;;;;;;;;;;;;;;;;1480237;40;7050;-67
2021/06/06 06:27:11;;;;;;;;;;;;;;;;;;1480433;40;7298;-64
2021/06/06 06:28:13;;;;;;;;;;;;;;;;;;1481013;40;6999;-63
2021/06/06 06:29:16;;;;;;;;;;;;;;;;;;1483013;40;7132;-63
2021/06/06 06:30:22;;;;;;;;;;;;;;;;;;1483002;40;7210;-66
2021/06/06 06:31:24;;;;;;;;;;;;;;;;;;1478900;40;7035;-64
2021/06/06 06:32:27;;;;;;;;;;;;;;;;;;1478159;40;7015;-63
2021/06/06 06:33:30;;;;;;;;;;;;;;;;;;1478863;40;7249;-65
2021/06/06 06:34:32;;;;;;;;;;;;;;;;;;1478968;40;7032;-63
2021/06/06 06:35:36;;;;;;;;;;;;;;;;;;1478859;40;8101;-63
2021/06/06 06:36:38;;;;;;;;;;;;;;;;;;1478572;40;7206;-63
2021/06/06 06:37:41;;;;;;;;;;;;;;;;;;1478530;40;7016;-62
2021/06/06 06:38:45;;;;;;;;;;;;;;;;;;1478688;40;7052;-66
2021/06/06 06:39:48;;;;;;;;;;;;;;;;;;1479056;40;7111;-64
2021/06/06 06:40:51;;;;;;;;;;;;;;;;;;1478642;40;7043;-63
2021/06/06 06:41:53;;;;;;;;;;;;;;;;;;1479020;40;7035;-65
2021/06/06 06:42:55;;;;;;;;;;;;;;;;;;1479068;40;7031;-64
2021/06/06 06:43:58;;;;;;;;;;;;;;;;;;1478998;40;7112;-67
2021/06/06 06:45:02;;;;;;;;;;;;;;;;;;1478979;40;7007;-64
2021/06/06 06:46:05;;;;;;;;;;;;;;;;;;1479053;40;7123;-65
2021/06/06 06:47:08;;;;;;;;;;;;;;;;;;1480442;40;7190;-63
2021/06/06 06:48:12;;;;;;;;;;;;;;;;;;1482925;40;7003;-67
2021/06/06 06:49:15;;;;;;;;;;;;;;;;;;1482950;40;7107;-65
2021/06/06 06:50:19;;;;;;;;;;;;;;;;;;1482809;40;7011;-66
2021/06/06 06:51:22;;;;;;;;;;;;;;;;;;1478987;40;7027;-67
2021/06/06 06:52:25;;;;;;;;;;;;;;;;;;1478988;40;7919;-63
2021/06/06 06:53:28;;;;;;;;;;;;;;;;;;1479078;40;7211;-63
2021/06/06 06:54:31;;;;;;;;;;;;;;;;;;1478984;40;7035;-64
2021/06/06 06:55:33;;;;;;;;;;;;;;;;;;1479108;40;7035;-64
2021/06/06 06:56:36;;;;;;;;;;;;;;;;;;1479460;40;7918;-65
2021/06/06 06:57:38;;;;;;;;;;;;;;;;;;1479165;40;7008;-63
2021/06/06 06:58:42;;;;;;;;;;;;;;;;;;1479669;40;7236;-63
2021/06/06 06:59:44;;;;;;;;;;;;;;;;;;1479841;40;7147;-67
2021/06/06 07:00:48;;;;;;;;;;;;;;;;;;1479564;40;7004;-65
2021/06/06 07:01:50;;;;;;;;;;;;;;;;;;1479559;40;7942;-66
2021/06/06 07:02:53;;;;;;;;;;;;;;;;;;1479342;40;7048;-63
2021/06/06 07:03:58;;;;;;;;;;;;;;;;;;1479642;40;8087;-65
2021/06/06 07:05:00;;;;;;;;;;;;;;;;;;1479615;40;6999;-64
2021/06/06 07:06:04;;;;;;;;;;;;;;;;;;1479221;40;8533;-64
2021/06/06 07:07:06;;;;;;;;;;;;;;;;;;1479559;40;7132;-66
2021/06/06 07:08:11;;;;;;;;;;;;;;;;;;1479365;40;8683;-64
2021/06/06 07:09:13;;;;;;;;;;;;;;;;;;1479636;40;7120;-66
2021/06/06 07:10:17;;;;;;;;;;;;;;;;;;1479354;40;7020;-64
2021/06/06 07:11:21;;;;;;;;;;;;;;;;;;1479763;40;8684;-66
2021/06/06 07:12:23;;;;;;;;;;;;;;;;;;1479538;40;8005;-65
2021/06/06 07:13:26;;;;;;;;;;;;;;;;;;1479325;40;7035;-67
2021/06/06 07:14:31;;;;;;;;;;;;;;;;;;1479610;40;7191;-66
2021/06/06 07:15:35;;;;;;;;;;;;;;;;;;1479266;40;7016;-64
2021/06/06 07:16:38;;;;;;;;;;;;;;;;;;1479406;40;7051;-65
2021/06/06 07:17:41;;;;;;;;;;;;;;;;;;1481058;40;7896;-65
2021/06/06 07:18:43;;;;;;;;;;;;;;;;;;1483264;40;7012;-64
2021/06/06 07:19:46;;;;;;;;;;;;;;;;;;1479150;40;7003;-67
2021/06/06 07:20:50;;;;;;;;;;;;;;;;;;1478785;40;7079;-65
2021/06/06 07:21:53;;;;;;;;;;;;;;;;;;1482165;40;7008;-65
2021/06/06 07:22:56;;;;;;;;;;;;;;;;;;1481079;40;7120;-67
2021/06/06 07:23:58;;;;;;;;;;;;;;;;;;1479313;40;7207;-66
2021/06/06 07:25:01;;;;;;;;;;;;;;;;;;1479168;40;7023;-64
2021/06/06 07:26:08;;;;;;;;;;;;;;;;;;1479239;40;7012;-66
2021/06/06 07:27:10;;;;;;;;;;;;;;;;;;1478827;40;7738;-64
2021/06/06 07:28:19;;;;;;;;;;;;;;;;;;1479004;40;7016;-63